createdAt,value
2018-09-14T00:00:46.099Z,62
2018-09-14T00:10:48.266Z,62
2018-09-14T00:20:50.366Z,62.2
2018-09-14T00:30:52.272Z,62.2
2018-09-14T00:40:54.110Z,62.2
2018-09-14T00:50:56.004Z,62.3
2018-09-14T01:00:57.899Z,62.2
2018-09-14T01:11:00.190Z,62.3
2018-09-14T01:21:01.896Z,62.2
2018-09-14T01:31:03.624Z,62.4
2018-09-14T01:41:05.421Z,62.3
2018-09-14T01:51:07.504Z,62.3
2018-09-14T02:01:09.539Z,62.5
2018-09-14T02:11:11.874Z,62.5
2018-09-14T02:21:13.623Z,62.6
2018-09-14T02:31:15.729Z,62.7
2018-09-14T02:41:17.913Z,62.7
2018-09-14T02:51:19.545Z,62.7
2018-09-14T03:01:21.199Z,62.8
2018-09-14T03:11:23.435Z,62.8
2018-09-14T03:21:25.105Z,62.6
2018-09-14T03:31:27.336Z,62.5
2018-09-14T03:41:29.319Z,62.5
2018-09-14T03:51:31.199Z,62.3
2018-09-14T04:01:33.013Z,62.2
2018-09-14T04:11:34.365Z,62.1
2018-09-14T04:21:36.277Z,62.3
2018-09-14T04:31:38.525Z,62.7
2018-09-14T04:41:40.110Z,63
2018-09-14T04:51:41.875Z,63.3
2018-09-14T05:01:44.121Z,63.2
2018-09-14T05:11:45.911Z,63.1
2018-09-14T05:21:47.998Z,63.1
2018-09-14T05:31:50.017Z,62.9
2018-09-14T05:41:51.947Z,62.9
2018-09-14T05:51:53.914Z,62.8
2018-09-14T06:01:54.766Z,62.8
2018-09-14T06:11:57.063Z,62.8
2018-09-14T06:21:58.753Z,61.9
2018-09-14T06:32:00.819Z,61.3
2018-09-14T06:42:02.684Z,60.6
2018-09-14T06:52:04.645Z,60.2
2018-09-14T07:02:06.477Z,59.6
2018-09-14T07:12:08.187Z,59.3
2018-09-14T07:22:10.272Z,59.9
2018-09-14T07:32:11.840Z,60.2
2018-09-14T07:42:13.968Z,60.4
2018-09-14T07:52:16.239Z,60.6
2018-09-14T08:02:17.737Z,60.6
2018-09-14T08:12:19.879Z,60.8
2018-09-14T08:22:21.703Z,60.8
2018-09-14T08:32:23.935Z,60.9
2018-09-14T08:42:25.481Z,61
2018-09-14T08:52:27.495Z,61
2018-09-14T09:02:29.057Z,61
2018-09-14T09:12:31.010Z,61
2018-09-14T09:22:33.148Z,61
2018-09-14T09:32:35.230Z,61
2018-09-14T09:42:37.300Z,61
2018-09-14T09:52:40.456Z,61
2018-09-14T10:02:43.031Z,61.1
2018-09-14T10:12:44.675Z,61
2018-09-14T10:22:46.904Z,61.1
2018-09-14T10:32:48.704Z,61.1
2018-09-14T10:42:50.515Z,61
2018-09-14T10:52:52.050Z,61
2018-09-14T11:02:54.042Z,61.2
2018-09-14T11:12:55.986Z,61.2
2018-09-14T11:22:57.626Z,61.1
2018-09-14T11:32:58.946Z,61.1
2018-09-14T11:43:00.913Z,61.1
2018-09-14T11:53:02.660Z,61.1
2018-09-14T12:03:04.587Z,61.1
2018-09-14T12:13:06.508Z,61.2
2018-09-14T12:23:08.101Z,61.3
2018-09-14T12:33:10.507Z,61.2
2018-09-14T12:43:12.644Z,61.4
2018-09-14T12:53:14.767Z,61.3
2018-09-14T13:03:17.017Z,60.2
2018-09-14T13:13:19.274Z,59.5
2018-09-14T13:23:21.604Z,58.8
2018-09-14T13:33:23.740Z,59
2018-09-14T13:43:25.745Z,58.7
2018-09-14T13:53:27.595Z,59.3
2018-09-14T14:03:29.586Z,58.4
2018-09-14T14:13:31.434Z,58.1
2018-09-14T14:23:33.518Z,58.5
2018-09-14T14:33:35.528Z,57.7
2018-09-14T14:43:37.365Z,57.7
2018-09-14T14:53:39.287Z,57.9
2018-09-14T15:03:41.414Z,57.9
2018-09-14T15:13:43.151Z,58.1
2018-09-14T15:23:44.611Z,57.9
2018-09-14T15:33:47.015Z,57.7
2018-09-14T15:43:49.624Z,57.8
2018-09-14T15:53:51.627Z,58
2018-09-14T16:03:53.681Z,57.8
2018-09-14T16:13:55.234Z,58
2018-09-14T16:23:57.382Z,58
2018-09-14T16:33:59.384Z,57.7
2018-09-14T16:44:01.172Z,57.5
2018-09-14T16:54:02.815Z,57.5
2018-09-14T17:04:05.170Z,57.3
2018-09-14T17:14:07.912Z,57.6
2018-09-14T17:24:09.695Z,57.4
2018-09-14T17:34:11.544Z,57.5
2018-09-14T19:25:36.017Z,58.8
2018-09-14T19:35:34.867Z,54.3
2018-09-14T19:45:36.482Z,53
2018-09-14T19:55:37.909Z,52.5
2018-09-14T20:05:39.643Z,51.5
2018-09-14T20:15:42.041Z,51.7
2018-09-14T20:25:43.846Z,51.4
2018-09-14T20:35:45.501Z,52
2018-09-14T20:45:47.120Z,53.2
2018-09-14T20:55:48.869Z,54.1
2018-09-14T21:05:50.848Z,54.7
2018-09-14T21:15:52.341Z,55.1
2018-09-14T21:25:53.952Z,55.6
2018-09-14T21:35:56.071Z,55.9
2018-09-14T21:45:58.167Z,56.2
2018-09-14T21:56:04.990Z,56.4
2018-09-14T22:06:06.792Z,56.7
2018-09-14T22:16:08.117Z,56.9
2018-09-14T22:26:10.143Z,57
2018-09-14T22:36:11.948Z,57.1
2018-09-14T22:46:13.349Z,57.4
2018-09-14T22:56:15.445Z,57.5
2018-09-14T23:06:16.920Z,57.6
2018-09-14T23:16:19.047Z,57.8
2018-09-14T23:26:21.159Z,57.9
2018-09-14T23:36:23.109Z,58
2018-09-14T23:46:24.750Z,58.1
2018-09-14T23:56:27.023Z,58.3
